Lisnaskea, United Kingdom
Current Conditions -  °F | °C
As of 4:20 AM on Friday 28 Nov 2014 (Local Time) from EGAA Reporting Station
Clear Clear  
Wind Chill: 42°   Ceiling: Unl
Heat Index: 46°   Visibility: 4mi
Dew Point: 45°   Wind: 8mph
Humidity: 93%   Direction: 80°E
Pressure: 29.59"   Gusts: NA
Location:  54.25°N, 7.45°W
Report Text: EGAA 280420Z AUTO 08007KT 7000 NCD 08/07 Q1002
Loading
Personal Weather Stations






























Interactive Weather Map New forecast layout! Learn more

10-Day Weather Forecast

Advertisements
Track Severe Weather on mobile